Time;durP1;ratioP1;P1;durP2;ratioP2;P2;SDS_P1;SDS_P2;PMS_P1;PMS_P2;Temp;Humidity;BMP_temperature;BMP_pressure;BME280_temperature;BME280_humidity;BME280_pressure;Samples;Min_cycle;Max_cycle;Signal;HPM_P1;HPM_P2
2020/12/27 00:02:04;;;;;;;4.30;2.75;;;4.10;99.90;;;;;;5092644;28;20034;-72
2020/12/27 00:04:30;;;;;;;4.57;3.17;;;4.20;99.90;;;;;;5093986;28;20107;-72
2020/12/27 00:06:55;;;;;;;3.42;2.70;;;4.20;99.90;;;;;;5093876;28;20531;-72
2020/12/27 00:09:21;;;;;;;3.92;2.58;;;4.20;99.90;;;;;;5092431;28;20056;-72
2020/12/27 00:11:46;;;;;;;3.78;2.28;;;4.30;99.90;;;;;;5091996;28;20035;-72
2020/12/27 00:14:12;;;;;;;3.58;3.00;;;4.30;99.90;;;;;;5093822;28;20028;-72
2020/12/27 00:16:37;;;;;;;3.08;2.50;;;4.20;99.90;;;;;;5075987;28;20111;-72
2020/12/27 00:19:03;;;;;;;5.05;2.58;;;4.30;99.90;;;;;;5093614;28;20044;-71
2020/12/27 00:21:28;;;;;;;5.13;3.25;;;4.30;99.90;;;;;;5097162;28;20024;-72
2020/12/27 00:23:54;;;;;;;6.80;3.20;;;4.20;99.90;;;;;;5096247;28;20464;-72
2020/12/27 00:26:19;;;;;;;3.88;3.00;;;4.20;99.90;;;;;;5095870;28;20357;-72
2020/12/27 00:28:45;;;;;;;6.38;3.42;;;4.20;99.90;;;;;;5097592;28;20378;-72
2020/12/27 00:31:16;;;;;;;5.00;3.10;;;4.20;99.90;;;;;;5097568;28;20108;-72
2020/12/27 00:33:42;;;;;;;5.38;2.60;;;4.10;99.90;;;;;;5096051;28;20020;-72
2020/12/27 00:36:07;;;;;;;6.53;3.38;;;4.10;99.90;;;;;;5097200;28;20028;-72
2020/12/27 00:38:33;;;;;;;4.15;2.97;;;4.10;99.90;;;;;;5097419;28;20025;-72
2020/12/27 00:40:58;;;;;;;4.95;2.78;;;4.10;99.90;;;;;;5097376;28;20453;-72
2020/12/27 00:43:25;;;;;;;5.75;2.90;;;4.10;99.90;;;;;;5096234;28;20028;-72
2020/12/27 00:45:51;;;;;;;4.60;2.70;;;4.10;99.90;;;;;;5097295;28;20469;-72
2020/12/27 00:48:16;;;;;;;2.97;2.67;;;4.10;99.90;;;;;;5097254;28;20066;-72
2020/12/27 00:50:42;;;;;;;4.40;2.78;;;4.10;99.90;;;;;;5095697;28;20407;-72
2020/12/27 00:53:07;;;;;;;5.20;3.03;;;4.10;99.90;;;;;;5097156;28;20032;-72
2020/12/27 00:55:33;;;;;;;5.10;2.80;;;4.10;99.90;;;;;;5097090;28;20027;-72
2020/12/27 00:57:59;;;;;;;6.00;2.65;;;4.10;99.90;;;;;;5096971;28;20077;-72
2020/12/27 01:00:24;;;;;;;3.90;2.92;;;4.00;99.90;;;;;;5096980;28;20034;-72
2020/12/27 01:02:50;;;;;;;2.72;2.05;;;4.10;99.90;;;;;;5096667;28;20373;-73
2020/12/27 01:05:15;;;;;;;5.68;3.10;;;4.10;99.90;;;;;;5096896;28;20024;-72
2020/12/27 01:07:41;;;;;;;3.72;2.95;;;4.10;99.90;;;;;;5095369;28;20028;-72
2020/12/27 01:10:07;;;;;;;7.65;3.00;;;4.10;99.90;;;;;;5096798;28;20032;-72
2020/12/27 01:12:32;;;;;;;3.85;2.70;;;4.10;99.90;;;;;;5096672;28;20058;-72
2020/12/27 01:14:58;;;;;;;3.97;2.60;;;4.10;99.90;;;;;;5096117;28;20173;-72
2020/12/27 01:17:24;;;;;;;2.35;2.15;;;4.10;99.90;;;;;;5095999;28;20063;-72
2020/12/27 01:19:49;;;;;;;2.60;2.40;;;4.10;99.90;;;;;;5096620;28;20027;-71
2020/12/27 01:22:15;;;;;;;5.30;2.50;;;4.10;99.90;;;;;;5077974;28;20027;-72
2020/12/27 01:24:40;;;;;;;4.10;2.42;;;4.10;99.90;;;;;;5094795;28;20105;-71
2020/12/27 01:27:06;;;;;;;4.70;2.92;;;4.20;99.90;;;;;;5096237;28;20024;-72
2020/12/27 01:29:31;;;;;;;4.18;2.28;;;4.20;99.90;;;;;;5096092;28;20032;-72
2020/12/27 01:32:01;;;;;;;3.70;2.05;;;4.20;99.90;;;;;;5096403;28;20373;-72
2020/12/27 01:34:27;;;;;;;3.55;2.92;;;4.20;99.90;;;;;;5096067;28;20038;-72
2020/12/27 01:36:53;;;;;;;5.68;2.28;;;4.20;99.90;;;;;;5095847;28;20044;-72
2020/12/27 01:39:19;;;;;;;4.30;2.60;;;4.20;99.90;;;;;;5096299;28;20368;-72
2020/12/27 01:41:44;;;;;;;3.88;2.67;;;4.20;99.90;;;;;;5096209;28;20411;-72
2020/12/27 01:44:13;;;;;;;4.15;2.70;;;4.20;99.90;;;;;;5095882;28;20035;-71
2020/12/27 01:46:43;;;;;;;2.58;2.25;;;4.20;99.90;;;;;;5096074;28;20024;-72
2020/12/27 01:49:10;;;;;;;2.13;1.85;;;4.20;99.90;;;;;;5096052;28;20031;-72
2020/12/27 01:51:36;;;;;;;2.45;2.22;;;4.20;99.90;;;;;;5095986;28;20016;-72
2020/12/27 01:54:03;;;;;;;2.58;1.90;;;4.20;99.90;;;;;;5095913;28;20030;-72
2020/12/27 01:56:33;;;;;;;2.33;2.10;;;4.20;99.90;;;;;;5095783;28;20129;-72
2020/12/27 01:59:03;;;;;;;3.30;2.40;;;4.20;99.90;;;;;;5094299;28;20016;-72
2020/12/27 02:01:30;;;;;;;3.65;2.20;;;4.20;99.90;;;;;;5095824;28;20027;-72
2020/12/27 02:03:56;;;;;;;3.53;2.05;;;4.20;99.90;;;;;;5095441;28;20028;-72
2020/12/27 02:06:22;;;;;;;2.28;2.00;;;4.20;99.90;;;;;;5095106;28;20407;-72
2020/12/27 02:08:49;;;;;;;3.75;2.67;;;4.20;99.90;;;;;;5094102;28;20020;-72
2020/12/27 02:11:18;;;;;;;3.72;2.47;;;4.20;99.90;;;;;;5095619;28;20016;-72
2020/12/27 02:13:48;;;;;;;2.45;1.95;;;4.20;99.90;;;;;;5095554;28;20437;-72
2020/12/27 02:16:16;;;;;;;3.53;2.42;;;4.20;99.90;;;;;;5095405;28;20472;-72
2020/12/27 02:18:42;;;;;;;4.75;2.20;;;4.20;99.90;;;;;;5095420;28;20479;-72
2020/12/27 02:21:07;;;;;;;3.22;2.33;;;4.20;99.90;;;;;;5095444;28;20098;-73
2020/12/27 02:23:33;;;;;;;3.28;2.05;;;4.10;99.90;;;;;;5093962;28;20051;-72
2020/12/27 02:25:59;;;;;;;3.03;1.80;;;4.10;99.90;;;;;;5095348;28;20450;-72
2020/12/27 02:28:25;;;;;;;3.35;1.65;;;4.10;99.90;;;;;;5095299;28;20533;-71
2020/12/27 02:30:51;;;;;;;3.20;1.80;;;4.10;99.90;;;;;;5094998;28;20032;-71
2020/12/27 02:33:16;;;;;;;4.60;1.95;;;4.20;99.90;;;;;;5093757;28;20039;-71
2020/12/27 02:35:42;;;;;;;2.58;1.88;;;4.20;99.90;;;;;;5095166;28;20035;-71
2020/12/27 02:38:07;;;;;;;3.15;2.10;;;4.20;99.90;;;;;;5093303;28;20174;-71
2020/12/27 02:40:33;;;;;;;2.85;1.80;;;4.20;99.90;;;;;;5093283;28;20048;-71
2020/12/27 02:42:58;;;;;;;1.88;1.73;;;4.20;99.90;;;;;;5094381;28;20032;-72
2020/12/27 02:45:24;;;;;;;1.88;1.65;;;4.20;99.90;;;;;;5094966;28;20024;-71
2020/12/27 02:47:50;;;;;;;2.70;1.80;;;4.20;99.90;;;;;;5094995;28;20028;-72
2020/12/27 02:50:15;;;;;;;3.72;1.67;;;4.30;99.90;;;;;;5094726;28;20056;-72
2020/12/27 02:52:41;;;;;;;2.55;1.30;;;4.30;99.90;;;;;;5094997;28;20028;-72
2020/12/27 02:55:08;;;;;;;3.85;1.65;;;4.30;99.90;;;;;;5094649;28;20031;-72
2020/12/27 02:57:34;;;;;;;2.33;1.55;;;4.40;99.90;;;;;;5094183;28;20028;-72
2020/12/27 03:00:00;;;;;;;5.95;1.50;;;4.40;99.90;;;;;;5094763;28;20024;-71
2020/12/27 03:02:25;;;;;;;2.60;1.25;;;4.40;99.90;;;;;;5094650;28;20077;-71
2020/12/27 03:04:51;;;;;;;3.72;1.65;;;4.40;99.90;;;;;;5094626;28;20039;-71
2020/12/27 03:07:16;;;;;;;2.60;1.40;;;4.50;99.90;;;;;;5094323;28;20085;-71
2020/12/27 03:09:42;;;;;;;2.60;1.35;;;4.50;99.90;;;;;;5092757;28;20111;-71
2020/12/27 03:12:08;;;;;;;2.92;1.30;;;4.50;99.90;;;;;;5093090;28;20465;-71
2020/12/27 03:14:34;;;;;;;1.98;1.38;;;4.50;99.90;;;;;;5093334;28;20473;-72
2020/12/27 03:16:59;;;;;;;1.92;1.52;;;4.50;99.90;;;;;;5093124;28;20024;-72
2020/12/27 03:19:25;;;;;;;1.90;1.25;;;4.50;99.90;;;;;;5094405;28;20457;-72
2020/12/27 03:21:50;;;;;;;1.50;1.23;;;4.50;99.90;;;;;;5094129;28;20043;-71
2020/12/27 03:24:16;;;;;;;1.50;1.15;;;4.50;99.90;;;;;;5093822;28;20023;-72
2020/12/27 03:26:41;;;;;;;1.60;1.23;;;4.50;99.90;;;;;;5094023;28;20081;-72
2020/12/27 03:29:07;;;;;;;5.07;1.23;;;4.50;99.90;;;;;;5094005;28;20070;-72
2020/12/27 03:31:32;;;;;;;3.17;1.60;;;4.50;99.90;;;;;;5093976;28;20028;-72
2020/12/27 03:33:58;;;;;;;2.92;1.00;;;4.50;99.90;;;;;;5094210;28;20030;-71
2020/12/27 03:36:24;;;;;;;1.75;0.73;;;4.50;99.90;;;;;;5093869;28;20047;-72
2020/12/27 03:38:51;;;;;;;3.38;1.52;;;4.50;99.90;;;;;;5094203;28;20453;-71
2020/12/27 03:41:18;;;;;;;4.03;1.27;;;4.50;99.90;;;;;;5093632;28;20430;-72
2020/12/27 03:43:45;;;;;;;0.80;0.80;;;4.60;99.90;;;;;;5092687;28;20528;-72
2020/12/27 03:46:10;;;;;;;2.17;1.20;;;4.60;99.90;;;;;;5093873;28;20020;-72
2020/12/27 03:48:36;;;;;;;2.40;1.10;;;4.60;99.90;;;;;;5093549;28;20365;-72
2020/12/27 03:51:01;;;;;;;1.27;1.17;;;4.70;99.90;;;;;;5092673;28;20479;-72
2020/12/27 03:53:27;;;;;;;1.65;1.20;;;4.70;99.90;;;;;;5095544;28;20034;-71
2020/12/27 03:55:53;;;;;;;2.38;1.30;;;4.70;99.90;;;;;;5098210;28;20020;-71
2020/12/27 03:58:18;;;;;;;1.85;1.10;;;4.80;99.90;;;;;;5098109;28;20113;-71
2020/12/27 04:00:44;;;;;;;3.47;1.40;;;4.80;99.90;;;;;;5097588;28;20492;-71
2020/12/27 04:03:09;;;;;;;1.30;1.20;;;4.80;99.90;;;;;;5098147;28;20095;-72
2020/12/27 04:05:35;;;;;;;1.13;1.02;;;4.80;99.90;;;;;;5098019;28;20077;-72
2020/12/27 04:08:00;;;;;;;1.48;1.02;;;4.80;99.90;;;;;;5097987;28;20036;-71
2020/12/27 04:10:26;;;;;;;3.20;1.10;;;4.80;99.90;;;;;;5096762;28;20028;-72
2020/12/27 04:12:51;;;;;;;1.15;0.90;;;4.80;99.90;;;;;;5096208;28;20028;-71
2020/12/27 04:15:17;;;;;;;1.60;1.13;;;4.80;99.90;;;;;;5096734;28;20028;-72
2020/12/27 04:17:42;;;;;;;2.10;1.10;;;4.80;99.90;;;;;;5097475;28;20028;-72
2020/12/27 04:20:08;;;;;;;1.58;1.15;;;4.80;99.90;;;;;;5097800;28;20066;-71
2020/12/27 04:22:33;;;;;;;1.27;1.10;;;4.80;99.90;;;;;;5097471;28;20095;-71
2020/12/27 04:24:59;;;;;;;2.42;1.20;;;4.80;99.90;;;;;;5097528;28;20020;-71
2020/12/27 04:27:25;;;;;;;1.50;1.10;;;4.80;99.90;;;;;;5097388;28;20385;-71
2020/12/27 04:29:50;;;;;;;0.75;0.73;;;4.80;99.90;;;;;;5097676;28;20051;-71
2020/12/27 04:32:16;;;;;;;1.10;1.00;;;4.90;99.90;;;;;;5097631;28;20035;-71
2020/12/27 04:34:41;;;;;;;2.88;1.10;;;4.90;99.90;;;;;;5095769;28;20035;-71
2020/12/27 04:37:07;;;;;;;1.33;0.82;;;4.90;99.90;;;;;;5096762;28;20044;-71
2020/12/27 04:39:33;;;;;;;1.27;1.17;;;4.90;99.90;;;;;;5095979;28;20042;-71
2020/12/27 04:41:59;;;;;;;1.20;1.02;;;5.00;99.90;;;;;;5097303;28;20062;-71
2020/12/27 04:44:25;;;;;;;1.10;1.00;;;5.00;99.90;;;;;;5095583;28;20020;-71
2020/12/27 04:46:53;;;;;;;1.35;1.00;;;5.00;99.90;;;;;;5096986;28;20028;-72
2020/12/27 04:49:18;;;;;;;1.77;1.23;;;5.00;99.90;;;;;;5097237;28;20055;-71
2020/12/27 04:51:45;;;;;;;2.28;1.20;;;5.00;99.90;;;;;;5096622;28;20060;-71
2020/12/27 04:54:13;;;;;;;1.25;1.00;;;4.90;99.90;;;;;;5096880;28;20028;-72
2020/12/27 04:56:41;;;;;;;1.10;1.00;;;5.00;99.90;;;;;;5097025;28;20031;-71
2020/12/27 04:59:06;;;;;;;2.30;1.23;;;5.00;99.90;;;;;;5095617;28;20031;-72
2020/12/27 05:01:32;;;;;;;1.00;0.90;;;5.00;99.90;;;;;;5097012;28;20077;-71
2020/12/27 05:03:57;;;;;;;1.48;0.80;;;4.90;99.90;;;;;;5078842;28;20094;-72
2020/12/27 05:06:23;;;;;;;1.67;1.20;;;5.00;99.90;;;;;;5096160;28;20476;-72
2020/12/27 05:08:49;;;;;;;2.88;1.30;;;5.00;99.90;;;;;;5095867;28;20024;-72
2020/12/27 05:11:15;;;;;;;1.77;0.90;;;5.00;99.90;;;;;;5096248;28;20023;-71
2020/12/27 05:13:48;;;;;;;1.45;1.20;;;5.00;99.90;;;;;;5096777;28;20020;-72
2020/12/27 05:16:15;;;;;;;2.45;1.25;;;5.00;99.90;;;;;;5096422;28;20035;-71
2020/12/27 05:18:43;;;;;;;4.28;1.17;;;5.00;99.90;;;;;;5096598;28;20028;-71
2020/12/27 05:21:08;;;;;;;2.85;1.20;;;5.10;99.90;;;;;;5096332;28;20020;-71
2020/12/27 05:23:36;;;;;;;1.38;1.00;;;5.10;99.90;;;;;;5096594;28;20364;-72
2020/12/27 05:26:08;;;;;;;2.00;1.30;;;5.10;99.90;;;;;;5095039;28;20443;-72
2020/12/27 05:28:34;;;;;;;1.17;1.13;;;5.10;99.90;;;;;;5096503;28;20028;-72
2020/12/27 05:31:10;;;;;;;1.60;1.30;;;5.20;99.90;;;;;;5096143;28;20077;-71
2020/12/27 05:33:38;;;;;;;1.30;1.20;;;5.10;99.90;;;;;;5096126;28;20016;-72
2020/12/27 05:36:03;;;;;;;1.98;1.20;;;5.10;99.90;;;;;;5096258;28;20111;-72
2020/12/27 05:38:29;;;;;;;3.85;1.20;;;5.10;99.90;;;;;;5095966;28;20115;-71
2020/12/27 05:40:55;;;;;;;1.10;1.00;;;5.10;99.90;;;;;;5096268;28;20342;-71
2020/12/27 05:43:21;;;;;;;1.80;1.38;;;5.10;99.90;;;;;;5095964;28;20053;-71
2020/12/27 05:45:47;;;;;;;1.95;1.15;;;5.10;99.90;;;;;;5095596;28;20476;-72
2020/12/27 05:48:12;;;;;;;1.00;1.00;;;5.10;99.90;;;;;;5094289;28;20055;-72
2020/12/27 05:50:39;;;;;;;2.17;1.30;;;5.00;99.90;;;;;;5095793;28;20032;-71
2020/12/27 05:53:28;;;;;;;1.15;1.05;;;5.10;99.90;;;;;;5095948;28;20520;-71
2020/12/27 05:55:53;;;;;;;2.17;1.13;;;5.20;99.90;;;;;;5095339;28;20128;-72
2020/12/27 05:58:22;;;;;;;2.03;1.30;;;5.20;99.90;;;;;;5095803;28;20103;-72
2020/12/27 06:00:51;;;;;;;1.52;0.90;;;5.20;99.90;;;;;;5094685;28;20062;-71
2020/12/27 06:03:20;;;;;;;1.25;1.00;;;5.20;99.90;;;;;;5094004;28;20099;-72
2020/12/27 06:06:08;;;;;;;1.30;1.20;;;5.20;99.90;;;;;;5095743;28;20016;-72
2020/12/27 06:09:03;;;;;;;1.20;1.10;;;5.20;99.90;;;;;;5095401;28;20017;-71
2020/12/27 06:11:47;;;;;;;4.88;1.63;;;5.30;99.90;;;;;;5095578;28;20012;-71
2020/12/27 06:14:19;;;;;;;1.10;1.00;;;5.30;99.90;;;;;;5094183;28;20031;-72
2020/12/27 06:16:50;;;;;;;1.23;0.98;;;5.30;99.90;;;;;;5094391;28;20377;-71
2020/12/27 06:19:28;;;;;;;1.35;0.93;;;5.40;99.90;;;;;;5095249;28;20012;-72
2020/12/27 06:22:09;;;;;;;2.88;1.13;;;5.30;99.90;;;;;;5095151;28;20027;-72
2020/12/27 06:24:37;;;;;;;2.17;1.00;;;5.30;99.90;;;;;;5094265;28;20016;-72
2020/12/27 06:27:05;;;;;;;1.42;1.15;;;5.30;99.90;;;;;;5095383;28;20077;-71
2020/12/27 06:29:40;;;;;;;1.42;1.08;;;5.30;99.90;;;;;;5095080;28;20020;-72
2020/12/27 06:32:08;;;;;;;2.65;1.30;;;5.30;99.90;;;;;;5095243;28;20020;-71
2020/12/27 06:34:35;;;;;;;3.60;1.60;;;5.30;99.90;;;;;;5095233;28;20426;-72
2020/12/27 06:37:06;;;;;;;1.33;1.23;;;5.20;99.90;;;;;;5094528;28;20130;-71
2020/12/27 06:39:32;;;;;;;1.75;1.10;;;5.20;99.90;;;;;;5095133;28;20360;-72
2020/12/27 06:42:14;;;;;;;3.47;1.50;;;5.30;99.90;;;;;;5095073;28;20102;-71
2020/12/27 06:44:42;;;;;;;3.47;1.37;;;5.20;99.90;;;;;;5093595;28;20465;-72
2020/12/27 06:47:08;;;;;;;1.17;1.02;;;5.20;99.90;;;;;;5094984;28;20254;-72
2020/12/27 06:49:34;;;;;;;1.08;0.98;;;5.20;99.90;;;;;;5094395;28;20377;-72
2020/12/27 06:52:20;;;;;;;1.10;1.00;;;5.20;99.90;;;;;;5094922;28;20024;-72
2020/12/27 06:54:49;;;;;;;1.30;1.20;;;5.20;99.90;;;;;;5094864;28;20480;-71
2020/12/27 06:57:37;;;;;;;1.60;1.50;;;5.20;99.90;;;;;;5094758;28;20097;-71
2020/12/27 07:00:22;;;;;;;2.90;1.40;;;5.20;99.90;;;;;;5094447;28;20117;-72
2020/12/27 07:02:49;;;;;;;2.85;1.30;;;5.10;99.90;;;;;;5094691;28;20020;-72
2020/12/27 07:05:31;;;;;;;1.30;0.90;;;5.10;99.90;;;;;;5092933;28;20449;-72
2020/12/27 07:07:57;;;;;;;1.88;1.30;;;5.20;99.90;;;;;;5094137;28;20036;-72
2020/12/27 07:10:26;;;;;;;2.28;1.05;;;5.20;99.90;;;;;;5094276;28;20020;-72
2020/12/27 07:12:59;;;;;;;2.70;1.10;;;5.20;99.90;;;;;;5094275;28;20032;-72
2020/12/27 07:15:27;;;;;;;1.30;1.20;;;5.20;99.90;;;;;;5094251;28;20025;-73
2020/12/27 07:17:54;;;;;;;3.88;1.20;;;5.30;99.90;;;;;;5094451;28;20016;-72
2020/12/27 07:20:22;;;;;;;0.95;0.80;;;5.30;99.90;;;;;;5092645;28;20026;-72
2020/12/27 07:22:55;;;;;;;1.35;1.23;;;5.20;99.90;;;;;;5094415;28;20035;-72
2020/12/27 07:25:23;;;;;;;1.40;1.00;;;5.20;99.90;;;;;;5093847;28;20023;-72
2020/12/27 07:27:50;;;;;;;1.35;0.90;;;5.30;99.90;;;;;;5093738;28;20032;-72
2020/12/27 07:30:17;;;;;;;1.30;1.10;;;5.30;99.90;;;;;;5094298;28;20070;-72
2020/12/27 07:32:44;;;;;;;1.73;1.23;;;5.30;99.90;;;;;;5094004;28;20353;-72
2020/12/27 07:35:10;;;;;;;2.95;1.20;;;5.30;99.90;;;;;;5092827;28;20020;-72
2020/12/27 07:37:37;;;;;;;1.50;1.05;;;5.30;99.90;;;;;;5093614;28;20397;-72
2020/12/27 07:40:05;;;;;;;1.88;1.00;;;5.40;99.90;;;;;;5093897;28;20101;-72
2020/12/27 07:42:33;;;;;;;2.83;1.10;;;5.30;99.90;;;;;;5094162;28;20422;-72
2020/12/27 07:45:01;;;;;;;1.38;1.15;;;5.30;99.90;;;;;;5094085;28;20026;-72
2020/12/27 07:47:27;;;;;;;1.02;0.82;;;5.40;99.90;;;;;;5093556;28;20099;-72
2020/12/27 07:50:06;;;;;;;3.05;1.10;;;5.40;99.90;;;;;;5094068;28;20023;-73
2020/12/27 07:52:54;;;;;;;1.58;0.98;;;5.40;99.90;;;;;;5093774;28;20027;-73
2020/12/27 07:55:37;;;;;;;1.92;0.90;;;5.40;99.90;;;;;;5093485;28;20020;-72
2020/12/27 07:58:05;;;;;;;1.67;1.10;;;5.50;99.90;;;;;;5092487;28;20487;-72
2020/12/27 08:00:36;;;;;;;1.58;1.10;;;5.40;99.90;;;;;;5093987;28;20067;-72
2020/12/27 08:03:04;;;;;;;1.83;1.00;;;5.40;99.90;;;;;;5092772;28;20342;-72
2020/12/27 08:05:30;;;;;;;2.67;1.20;;;5.40;99.90;;;;;;5094004;28;20043;-72
2020/12/27 08:08:03;;;;;;;1.35;1.00;;;5.40;99.90;;;;;;5093684;28;20380;-72
2020/12/27 08:10:29;;;;;;;1.15;0.80;;;5.40;99.90;;;;;;5092467;28;20027;-73
2020/12/27 08:12:57;;;;;;;1.00;0.90;;;5.40;99.90;;;;;;5093857;28;20028;-73
2020/12/27 08:15:24;;;;;;;2.38;1.05;;;5.40;99.90;;;;;;5093849;28;20016;-72
2020/12/27 08:18:07;;;;;;;2.30;1.00;;;5.30;99.90;;;;;;5093763;28;20020;-72
2020/12/27 08:20:49;;;;;;;1.20;0.90;;;5.30;99.90;;;;;;5092000;28;20388;-72
2020/12/27 08:23:15;;;;;;;0.93;0.47;;;5.40;99.90;;;;;;5093830;28;20125;-73
2020/12/27 08:25:41;;;;;;;0.70;0.70;;;5.40;99.90;;;;;;5093798;28;20471;-73
2020/12/27 08:28:09;;;;;;;2.08;1.00;;;5.50;99.90;;;;;;5093753;28;20028;-72
2020/12/27 08:30:35;;;;;;;0.88;0.85;;;5.50;99.90;;;;;;5093729;28;20027;-73
2020/12/27 08:35:44;;;;;;;0.93;0.80;;;5.50;99.90;;;;;;5091893;28;20349;-73
2020/12/27 08:41:19;;;;;;;1.10;0.90;;;5.50;99.90;;;;;;5112168;27;20351;-71
2020/12/27 08:44:10;;;;;;;1.23;0.90;;;5.50;99.90;;;;;;5111942;28;20020;-72
2020/12/27 08:46:39;;;;;;;1.13;1.00;;;5.50;99.90;;;;;;5110408;28;20113;-71
2020/12/27 08:49:23;;;;;;;1.65;1.02;;;5.50;99.90;;;;;;5110268;28;20085;-73
2020/12/27 08:51:52;;;;;;;0.98;0.80;;;5.50;99.90;;;;;;5111210;28;20024;-71
2020/12/27 08:54:20;;;;;;;1.00;0.90;;;5.50;99.90;;;;;;5111442;28;20055;-72
2020/12/27 08:56:46;;;;;;;1.33;1.00;;;5.50;99.90;;;;;;5110251;28;20032;-72
2020/12/27 08:59:15;;;;;;;0.70;0.70;;;5.50;99.90;;;;;;5111557;28;20073;-72
2020/12/27 09:01:41;;;;;;;0.90;0.90;;;5.50;99.90;;;;;;5111559;28;20077;-72
2020/12/27 09:04:19;;;;;;;1.27;1.00;;;5.50;99.90;;;;;;5111281;28;20373;-74
2020/12/27 09:06:59;;;;;;;1.52;0.90;;;5.60;99.90;;;;;;5111535;28;20107;-72
2020/12/27 09:09:25;;;;;;;0.80;0.80;;;5.60;99.90;;;;;;5111228;28;20383;-72
2020/12/27 09:11:51;;;;;;;0.93;0.88;;;5.60;99.90;;;;;;5111407;28;20031;-71
2020/12/27 09:14:37;;;;;;;3.03;1.20;;;5.60;99.90;;;;;;5109926;28;20027;-71
2020/12/27 09:17:07;;;;;;;1.27;1.05;;;5.60;99.90;;;;;;5109805;28;20023;-71
2020/12/27 09:19:35;;;;;;;1.23;0.90;;;5.60;99.90;;;;;;5110910;28;20031;-71
2020/12/27 09:22:04;;;;;;;1.15;1.00;;;5.70;99.90;;;;;;5110636;28;20388;-71
2020/12/27 09:24:30;;;;;;;2.45;1.00;;;5.70;99.90;;;;;;5110586;28;20023;-71
2020/12/27 09:27:05;;;;;;;1.15;0.85;;;5.70;99.90;;;;;;5111169;28;20373;-71
2020/12/27 09:29:31;;;;;;;0.80;0.80;;;5.70;99.90;;;;;;5110804;28;20088;-72
2020/12/27 09:32:07;;;;;;;0.95;0.85;;;5.70;99.90;;;;;;5111022;28;20472;-74
2020/12/27 09:34:33;;;;;;;1.23;0.85;;;5.70;99.90;;;;;;5110908;28;20024;-71
2020/12/27 09:37:11;;;;;;;2.50;0.90;;;5.80;99.90;;;;;;5092169;28;20028;-73
2020/12/27 09:39:37;;;;;;;0.80;0.80;;;5.80;99.90;;;;;;5108990;28;20047;-73
2020/12/27 09:42:03;;;;;;;1.65;0.90;;;5.80;99.90;;;;;;5110822;28;20429;-73
2020/12/27 09:44:30;;;;;;;0.77;0.77;;;5.80;99.90;;;;;;5109628;28;20024;-73
2020/12/27 09:46:57;;;;;;;0.90;0.90;;;5.80;99.90;;;;;;5109289;28;20012;-73
2020/12/27 09:49:32;;;;;;;1.02;0.90;;;5.90;99.90;;;;;;5110658;28;20349;-73
2020/12/27 09:52:11;;;;;;;1.58;0.90;;;6.00;99.90;;;;;;5100088;28;20480;-73
2020/12/27 09:54:39;;;;;;;1.38;0.90;;;5.90;99.90;;;;;;5096734;28;20020;-73
2020/12/27 09:57:14;;;;;;;2.67;1.05;;;6.00;99.90;;;;;;5095116;28;20123;-71
2020/12/27 09:59:40;;;;;;;1.45;0.82;;;6.00;99.90;;;;;;5096312;28;20469;-73
2020/12/27 10:02:06;;;;;;;1.00;0.90;;;6.10;99.90;;;;;;5096875;28;20024;-71
2020/12/27 10:04:32;;;;;;;3.15;0.75;;;6.10;99.90;;;;;;5096260;28;20031;-73
2020/12/27 10:06:58;;;;;;;1.90;0.90;;;6.10;99.90;;;;;;5096709;28;20040;-73
2020/12/27 10:09:24;;;;;;;0.73;0.70;;;6.10;99.90;;;;;;5095211;28;20031;-73
2020/12/27 10:11:50;;;;;;;1.35;0.90;;;6.10;99.90;;;;;;5096705;28;20042;-73
2020/12/27 10:14:16;;;;;;;0.60;0.60;;;6.20;99.90;;;;;;5096627;28;20478;-73
2020/12/27 10:16:42;;;;;;;1.05;0.88;;;6.20;99.90;;;;;;5096565;28;20028;-73
2020/12/27 10:19:07;;;;;;;1.23;0.55;;;6.20;99.90;;;;;;5095912;28;20031;-73
2020/12/27 10:21:33;;;;;;;1.15;0.93;;;6.20;99.90;;;;;;5096484;28;20020;-73
2020/12/27 10:23:58;;;;;;;0.80;0.80;;;6.30;99.90;;;;;;5096469;28;20027;-74
2020/12/27 10:26:24;;;;;;;1.95;0.85;;;6.30;99.90;;;;;;5096398;28;20034;-73
2020/12/27 10:28:50;;;;;;;1.42;1.00;;;6.30;99.90;;;;;;5096345;28;20024;-73
2020/12/27 10:31:15;;;;;;;3.30;0.88;;;6.40;99.90;;;;;;5095054;28;20394;-73
2020/12/27 10:33:41;;;;;;;1.38;0.85;;;6.40;99.90;;;;;;5096225;28;20062;-72
2020/12/27 10:36:07;;;;;;;1.20;0.73;;;6.40;99.90;;;;;;5095928;28;20107;-72
2020/12/27 10:38:32;;;;;;;1.17;0.77;;;6.40;99.90;;;;;;5096149;28;20020;-72
2020/12/27 10:41:00;;;;;;;2.90;0.95;;;6.40;99.90;;;;;;5095408;28;20052;-72
2020/12/27 10:43:26;;;;;;;0.50;0.50;;;6.40;99.90;;;;;;5096080;28;20016;-72
2020/12/27 10:45:58;;;;;;;1.02;0.93;;;6.40;99.90;;;;;;5095743;28;20104;-72
2020/12/27 10:48:24;;;;;;;1.05;0.70;;;6.50;99.90;;;;;;5095953;28;20020;-73
2020/12/27 10:50:49;;;;;;;4.30;0.77;;;6.40;99.90;;;;;;5095639;28;20024;-73
2020/12/27 10:53:15;;;;;;;1.48;0.90;;;6.40;99.90;;;;;;5095903;28;20028;-72
2020/12/27 10:55:46;;;;;;;1.25;0.73;;;6.40;99.90;;;;;;5095225;28;20031;-72
2020/12/27 10:58:11;;;;;;;1.88;0.80;;;6.40;99.90;;;;;;5095278;28;20024;-73
2020/12/27 11:00:37;;;;;;;1.05;0.80;;;6.40;99.90;;;;;;5095149;28;20144;-73
2020/12/27 11:03:03;;;;;;;1.45;0.80;;;6.40;99.90;;;;;;5094718;28;20380;-73
2020/12/27 11:05:28;;;;;;;0.85;0.85;;;6.40;99.90;;;;;;5094508;28;20012;-72
2020/12/27 11:07:54;;;;;;;1.42;0.80;;;6.40;99.90;;;;;;5095642;28;20035;-72
2020/12/27 11:10:19;;;;;;;1.17;0.93;;;6.40;99.90;;;;;;5095560;28;20028;-72
2020/12/27 11:12:45;;;;;;;0.73;0.73;;;6.40;99.90;;;;;;5095468;28;20031;-72
2020/12/27 11:15:10;;;;;;;1.13;0.90;;;6.40;99.90;;;;;;5095189;28;20032;-71
2020/12/27 11:17:36;;;;;;;0.70;0.70;;;6.40;99.90;;;;;;5095446;28;20044;-72
2020/12/27 11:20:02;;;;;;;1.65;0.73;;;6.40;99.90;;;;;;5095320;28;20024;-72
2020/12/27 11:22:29;;;;;;;1.20;0.98;;;6.40;99.90;;;;;;5094185;28;20016;-72
2020/12/27 11:24:54;;;;;;;1.75;0.85;;;6.40;99.90;;;;;;5095036;28;20098;-72
2020/12/27 11:27:20;;;;;;;0.77;0.75;;;6.40;99.90;;;;;;5094688;28;20103;-72
2020/12/27 11:29:45;;;;;;;0.55;0.55;;;6.30;99.90;;;;;;5095236;28;20031;-72
2020/12/27 11:32:11;;;;;;;2.28;1.42;;;6.30;99.90;;;;;;5095142;28;20024;-72
2020/12/27 11:34:37;;;;;;;1.30;0.70;;;6.30;99.90;;;;;;5095096;28;20073;-72
2020/12/27 11:37:02;;;;;;;1.15;0.85;;;6.30;99.90;;;;;;5095045;28;20062;-72
2020/12/27 11:39:28;;;;;;;2.20;1.42;;;6.30;99.90;;;;;;5094397;28;20481;-72
2020/12/27 11:41:53;;;;;;;0.70;0.70;;;6.20;99.90;;;;;;5094929;28;20027;-72
2020/12/27 11:44:19;;;;;;;1.08;0.70;;;6.20;99.90;;;;;;5093147;28;20024;-73
2020/12/27 11:46:45;;;;;;;2.25;0.85;;;6.20;99.90;;;;;;5094365;28;20028;-73
2020/12/27 11:49:11;;;;;;;0.68;0.68;;;6.10;99.90;;;;;;5094416;28;20036;-73
2020/12/27 11:51:36;;;;;;;0.85;0.85;;;6.00;99.90;;;;;;5094941;28;20031;-73
2020/12/27 11:54:02;;;;;;;1.17;0.88;;;6.00;99.90;;;;;;5094322;28;20020;-73
2020/12/27 11:56:28;;;;;;;0.88;0.80;;;6.00;99.90;;;;;;5093659;28;20039;-73
2020/12/27 11:58:53;;;;;;;1.92;1.00;;;6.00;99.90;;;;;;5094700;28;20028;-72
2020/12/27 12:01:19;;;;;;;0.90;0.82;;;6.00;99.90;;;;;;5092877;28;20027;-73
2020/12/27 12:03:44;;;;;;;2.10;1.15;;;6.00;99.90;;;;;;5094290;28;20024;-72
2020/12/27 12:06:14;;;;;;;1.17;1.08;;;6.00;99.90;;;;;;5094516;28;20115;-73
2020/12/27 12:08:41;;;;;;;1.45;1.00;;;6.00;99.90;;;;;;5094489;28;20498;-73
2020/12/27 12:11:06;;;;;;;4.28;2.17;;;6.10;99.90;;;;;;5094496;28;20472;-73
2020/12/27 12:13:33;;;;;;;3.30;2.95;;;6.10;99.90;;;;;;5094299;28;20028;-73
2020/12/27 12:15:59;;;;;;;1.40;1.30;;;6.00;99.90;;;;;;5093839;28;20016;-73
2020/12/27 12:18:24;;;;;;;2.10;1.77;;;6.00;99.90;;;;;;5094096;28;20072;-73
2020/12/27 12:20:51;;;;;;;1.90;1.17;;;6.00;99.90;;;;;;5092462;28;20107;-73
2020/12/27 12:23:17;;;;;;;1.60;1.40;;;6.10;99.90;;;;;;5094302;28;20012;-72
2020/12/27 12:25:44;;;;;;;3.53;1.95;;;6.10;99.90;;;;;;5094239;28;20027;-72
2020/12/27 12:28:10;;;;;;;2.10;1.90;;;6.00;99.90;;;;;;5093988;28;20042;-72
2020/12/27 12:30:41;;;;;;;2.65;1.70;;;6.00;99.90;;;;;;5093970;28;20089;-72
2020/12/27 12:33:07;;;;;;;10.35;4.75;;;6.00;99.90;;;;;;5094157;28;20048;-72
2020/12/27 12:35:32;;;;;;;1.83;1.50;;;6.00;99.90;;;;;;5092315;28;20031;-72
2020/12/27 12:37:58;;;;;;;1.88;1.70;;;6.00;99.90;;;;;;5094133;28;20024;-72
2020/12/27 12:40:24;;;;;;;0.95;0.80;;;6.00;99.90;;;;;;5093454;28;20044;-72
2020/12/27 12:42:50;;;;;;;2.10;1.27;;;6.00;99.90;;;;;;5093838;28;20030;-72
2020/12/27 12:45:15;;;;;;;1.23;1.10;;;6.10;99.90;;;;;;5094051;28;20024;-72
2020/12/27 12:47:41;;;;;;;1.08;0.93;;;6.30;99.90;;;;;;5094019;28;20024;-72
2020/12/27 12:50:06;;;;;;;1.90;1.10;;;6.20;99.90;;;;;;5093767;28;20024;-73
2020/12/27 12:52:32;;;;;;;1.55;0.95;;;6.20;99.90;;;;;;5094039;28;20028;-73
2020/12/27 12:54:57;;;;;;;2.20;2.00;;;6.10;99.90;;;;;;5093741;28;20023;-73
2020/12/27 12:57:23;;;;;;;1.92;1.73;;;6.10;99.90;;;;;;5093964;28;20471;-73
2020/12/27 12:59:49;;;;;;;2.40;1.50;;;6.10;99.90;;;;;;5092089;28;20020;-73
2020/12/27 13:02:14;;;;;;;5.50;3.42;;;6.00;99.90;;;;;;5092464;28;20016;-74
2020/12/27 13:04:42;;;;;;;1.92;1.70;;;6.10;99.90;;;;;;5093884;28;20480;-73
2020/12/27 13:07:08;;;;;;;1.15;1.05;;;6.00;99.90;;;;;;5093899;28;20016;-73